Terminal Aerodrome Forecast
Issued by NWS

Current Version | Previous Version | Text Only | Print | Product List | Glossary On
Versions: 1 2 3 4 5 6 7 8 9 10 11 12 13 14 15 16 17 18 19 20 21
000
FTUS42 KMLB 251100
TAFLEE
TAF
KLEE 251136Z 2512/2612 30009KT P6SM OVC070
     FM251600 33010KT P6SM SCT020 BKN040
     FM252200 01005KT P6SM SCT020 BKN080
     FM260900 03003KT P6SM SCT025 BKN040=

USA.gov is the U.S. government's official web portal to all federal, state and local government web resources and services.